Time;durP1;ratioP1;P1;durP2;ratioP2;P2;SDS_P1;SDS_P2;PMS_P1;PMS_P2;Temp;Humidity;BMP_temperature;BMP_pressure;BME280_temperature;BME280_humidity;BME280_pressure;Samples;Min_cycle;Max_cycle;Signal;HPM_P1;HPM_P2
2021/01/09 00:02:15;;;;;;;28.65;12.40;;;1.30;99.90;;;;;;4959273;28;20039;-76
2021/01/09 00:04:42;;;;;;;30.60;13.30;;;1.30;99.90;;;;;;4994517;28;20061;-77
2021/01/09 00:07:11;;;;;;;29.10;12.90;;;1.30;99.90;;;;;;4967243;28;20031;-76
2021/01/09 00:09:37;;;;;;;32.08;13.35;;;1.40;99.90;;;;;;4961103;28;20602;-77
2021/01/09 00:12:11;;;;;;;38.42;14.75;;;1.40;99.90;;;;;;4971512;28;20034;-78
2021/01/09 00:14:38;;;;;;;32.15;13.93;;;1.40;99.90;;;;;;4993392;28;20035;-81
2021/01/09 00:17:03;;;;;;;35.13;14.05;;;1.30;99.90;;;;;;4953663;28;20141;-81
2021/01/09 00:19:30;;;;;;;33.60;14.50;;;1.20;99.90;;;;;;4965018;28;20061;-77
2021/01/09 00:21:57;;;;;;;31.58;12.82;;;1.10;99.90;;;;;;4978154;28;20109;-77
2021/01/09 00:24:22;;;;;;;32.65;14.07;;;1.10;99.90;;;;;;4974822;28;20046;-78
2021/01/09 00:26:48;;;;;;;33.95;14.30;;;1.10;99.90;;;;;;4965266;28;20046;-78
2021/01/09 00:29:14;;;;;;;35.30;13.65;;;1.10;99.90;;;;;;4980611;28;20165;-78
2021/01/09 00:31:39;;;;;;;34.88;14.13;;;1.10;99.90;;;;;;4964349;28;20380;-77
2021/01/09 00:34:05;;;;;;;33.40;14.48;;;1.20;99.90;;;;;;4951750;28;20039;-77
2021/01/09 00:36:31;;;;;;;31.17;12.80;;;1.20;99.90;;;;;;4964480;28;20140;-77
2021/01/09 00:38:57;;;;;;;35.33;14.00;;;1.20;99.90;;;;;;4955316;28;20053;-77
2021/01/09 00:41:30;;;;;;;36.65;14.18;;;1.20;99.90;;;;;;4968414;28;20038;-77
2021/01/09 00:43:57;;;;;;;33.42;13.48;;;1.40;99.90;;;;;;4970448;28;20408;-76
2021/01/09 00:46:22;;;;;;;34.20;13.75;;;1.30;99.90;;;;;;4966271;28;20043;-77
2021/01/09 00:48:48;;;;;;;33.17;13.55;;;1.30;99.90;;;;;;4947847;28;20110;-76
2021/01/09 00:51:17;;;;;;;35.83;13.68;;;1.30;99.90;;;;;;4986975;28;20493;-76
2021/01/09 00:53:44;;;;;;;35.00;13.30;;;1.30;99.90;;;;;;4968500;28;20471;-77
2021/01/09 00:56:14;;;;;;;32.10;13.10;;;1.30;99.90;;;;;;4979738;28;20059;-76
2021/01/09 00:58:40;;;;;;;31.08;12.57;;;1.30;99.90;;;;;;4989885;28;20030;-76
2021/01/09 01:01:06;;;;;;;30.02;12.63;;;1.40;99.90;;;;;;4968030;28;20078;-76
2021/01/09 01:03:32;;;;;;;34.28;13.30;;;1.40;99.90;;;;;;4959698;28;20487;-76
2021/01/09 01:05:57;;;;;;;32.88;13.52;;;1.40;99.90;;;;;;4969105;28;20383;-76
2021/01/09 01:08:23;;;;;;;34.83;14.18;;;1.30;99.90;;;;;;4989176;28;20042;-77
2021/01/09 01:10:49;;;;;;;30.52;12.80;;;1.20;99.90;;;;;;4966036;28;20054;-77
2021/01/09 01:13:15;;;;;;;34.22;14.20;;;1.20;99.90;;;;;;4987496;28;20038;-76
2021/01/09 01:15:42;;;;;;;29.83;13.27;;;1.10;99.90;;;;;;4952210;28;20033;-76
2021/01/09 01:18:08;;;;;;;34.65;14.23;;;1.10;99.90;;;;;;4982335;28;20031;-75
2021/01/09 01:20:34;;;;;;;33.72;13.63;;;1.10;99.90;;;;;;4965590;28;20511;-75
2021/01/09 01:23:00;;;;;;;34.78;13.52;;;1.20;99.90;;;;;;4951977;28;20031;-76
2021/01/09 01:25:25;;;;;;;34.53;14.68;;;1.20;99.90;;;;;;4967825;28;20716;-76
2021/01/09 01:27:51;;;;;;;38.33;14.40;;;1.30;99.90;;;;;;4964430;28;20936;-76
2021/01/09 01:30:17;;;;;;;32.03;13.63;;;1.20;99.90;;;;;;4949142;28;20038;-76
2021/01/09 01:32:43;;;;;;;35.50;13.63;;;1.30;99.90;;;;;;4980833;28;20828;-75
2021/01/09 01:35:09;;;;;;;30.65;13.20;;;1.20;99.90;;;;;;4974416;28;20031;-76
2021/01/09 01:37:35;;;;;;;33.50;13.07;;;1.20;99.90;;;;;;4948811;28;20065;-75
2021/01/09 01:40:01;;;;;;;30.25;12.70;;;1.30;99.90;;;;;;4963809;28;20106;-75
2021/01/09 01:42:28;;;;;;;34.38;13.10;;;1.30;99.90;;;;;;4975023;28;20035;-75
2021/01/09 01:44:55;;;;;;;30.42;12.77;;;1.30;99.90;;;;;;4973537;28;20039;-75
2021/01/09 01:47:21;;;;;;;29.25;13.23;;;1.20;99.90;;;;;;4976524;28;20066;-75
2021/01/09 01:49:49;;;;;;;26.35;11.63;;;1.20;99.90;;;;;;4964797;28;20030;-75
2021/01/09 01:52:15;;;;;;;24.13;11.50;;;1.20;99.90;;;;;;4976385;28;20031;-75
2021/01/09 01:54:42;;;;;;;26.25;11.05;;;1.20;99.90;;;;;;4953912;28;20483;-76
2021/01/09 01:57:09;;;;;;;26.02;11.65;;;1.10;99.90;;;;;;4963158;28;20030;-76
2021/01/09 01:59:35;;;;;;;24.70;12.20;;;1.10;99.90;;;;;;4974596;28;20035;-76
2021/01/09 02:02:07;;;;;;;24.38;12.43;;;1.10;99.90;;;;;;4992898;28;20050;-74
2021/01/09 02:04:33;;;;;;;24.70;11.70;;;1.20;99.90;;;;;;4972937;28;20121;-76
2021/01/09 02:07:03;;;;;;;23.17;11.90;;;1.20;99.90;;;;;;4967664;28;20092;-76
2021/01/09 02:09:32;;;;;;;24.13;11.48;;;1.30;99.90;;;;;;4966640;28;20569;-76
2021/01/09 02:12:15;;;;;;;25.75;11.75;;;1.30;99.90;;;;;;4969057;28;20689;-76
2021/01/09 02:15:00;;;;;;;23.38;11.38;;;1.30;99.90;;;;;;4980975;28;20134;-75
2021/01/09 02:17:27;;;;;;;25.35;11.45;;;1.40;99.90;;;;;;4976774;28;20137;-75
2021/01/09 02:19:58;;;;;;;26.95;12.98;;;1.30;99.90;;;;;;4977538;28;20031;-76
2021/01/09 02:22:25;;;;;;;26.85;12.63;;;1.30;99.90;;;;;;4987089;28;20038;-76
2021/01/09 02:24:51;;;;;;;23.48;11.40;;;1.30;99.90;;;;;;4970437;28;20061;-76
2021/01/09 02:27:17;;;;;;;23.42;11.30;;;1.30;99.90;;;;;;4972647;28;20173;-76
2021/01/09 02:30:01;;;;;;;23.45;11.73;;;1.40;99.90;;;;;;4974050;28;20557;-76
2021/01/09 02:32:32;;;;;;;26.07;11.93;;;1.40;99.90;;;;;;4965980;28;20031;-76
2021/01/09 02:35:00;;;;;;;29.15;13.15;;;1.30;99.90;;;;;;4968437;28;20031;-75
2021/01/09 02:37:26;;;;;;;28.55;11.75;;;1.50;99.90;;;;;;4979239;28;20722;-76
2021/01/09 02:39:53;;;;;;;27.00;11.90;;;1.50;99.90;;;;;;4976683;28;20070;-76
2021/01/09 02:42:19;;;;;;;23.05;12.00;;;1.40;99.90;;;;;;4973218;28;20131;-76
2021/01/09 02:44:49;;;;;;;24.30;11.35;;;1.40;99.90;;;;;;4961041;28;20756;-76
2021/01/09 02:47:15;;;;;;;22.30;11.52;;;1.40;99.90;;;;;;4952698;28;20128;-76
2021/01/09 02:49:40;;;;;;;22.17;10.95;;;1.50;99.90;;;;;;4985470;28;20454;-76
2021/01/09 02:52:06;;;;;;;23.08;11.65;;;1.50;99.90;;;;;;4991569;28;20049;-76
2021/01/09 02:54:31;;;;;;;23.08;11.40;;;1.50;99.90;;;;;;4991464;28;20026;-77
2021/01/09 02:56:57;;;;;;;22.10;10.98;;;1.50;99.90;;;;;;4974545;28;20178;-77
2021/01/09 02:59:23;;;;;;;25.05;11.25;;;1.40;99.90;;;;;;4977364;28;20104;-76
2021/01/09 03:01:49;;;;;;;23.38;11.15;;;1.40;99.90;;;;;;4979306;28;20512;-76
2021/01/09 03:04:15;;;;;;;18.33;9.57;;;1.30;99.90;;;;;;4971164;28;20106;-76
2021/01/09 03:06:41;;;;;;;21.75;10.63;;;1.30;99.90;;;;;;4978623;28;20446;-77
2021/01/09 03:09:07;;;;;;;19.95;10.75;;;1.30;99.90;;;;;;4993071;28;20042;-76
2021/01/09 03:11:33;;;;;;;20.35;10.68;;;1.30;99.90;;;;;;4985750;28;20046;-77
2021/01/09 03:13:59;;;;;;;19.50;9.88;;;1.30;99.90;;;;;;4956760;28;20398;-76
2021/01/09 03:16:24;;;;;;;21.33;10.25;;;1.40;99.90;;;;;;4974366;28;20030;-76
2021/01/09 03:18:50;;;;;;;20.38;10.50;;;1.30;99.90;;;;;;4984574;28;20035;-76
2021/01/09 03:21:16;;;;;;;19.30;9.43;;;1.40;99.90;;;;;;4974111;28;20218;-77
2021/01/09 03:23:42;;;;;;;21.15;10.02;;;1.40;99.90;;;;;;4972351;28;20022;-77
2021/01/09 03:26:07;;;;;;;21.45;10.15;;;1.30;99.90;;;;;;4979265;28;20402;-76
2021/01/09 03:28:33;;;;;;;18.85;9.50;;;1.40;99.90;;;;;;4959934;28;20038;-75
2021/01/09 03:30:59;;;;;;;19.45;9.63;;;1.40;99.90;;;;;;4979490;28;20784;-75
2021/01/09 03:33:24;;;;;;;19.65;9.73;;;1.40;99.90;;;;;;4971830;28;20041;-76
2021/01/09 03:35:50;;;;;;;20.02;9.68;;;1.40;99.90;;;;;;4971827;28;20478;-76
2021/01/09 03:38:16;;;;;;;19.73;9.20;;;1.30;99.90;;;;;;4968481;28;20049;-77
2021/01/09 03:40:41;;;;;;;19.65;9.75;;;1.30;99.90;;;;;;4969646;28;20027;-77
2021/01/09 03:43:07;;;;;;;21.67;9.95;;;1.40;99.90;;;;;;4991976;28;20510;-76
2021/01/09 03:45:33;;;;;;;18.13;9.23;;;1.40;99.90;;;;;;4949699;28;20145;-76
2021/01/09 03:47:58;;;;;;;20.25;9.52;;;1.30;99.90;;;;;;4971188;28;20327;-77
2021/01/09 03:50:24;;;;;;;17.90;9.38;;;1.30;99.90;;;;;;4982417;28;20027;-76
2021/01/09 03:52:50;;;;;;;17.92;9.27;;;1.30;99.90;;;;;;4971755;28;20042;-77
2021/01/09 03:55:16;;;;;;;19.52;9.25;;;1.30;99.90;;;;;;4975183;28;20038;-76
2021/01/09 03:57:41;;;;;;;18.13;9.02;;;1.20;99.90;;;;;;4960211;28;20037;-77
2021/01/09 04:00:07;;;;;;;20.98;9.15;;;1.20;99.90;;;;;;4972961;28;20709;-77
2021/01/09 04:02:34;;;;;;;20.23;9.13;;;1.30;99.90;;;;;;4951174;28;20038;-77
2021/01/09 04:05:00;;;;;;;17.02;8.80;;;1.20;99.90;;;;;;4956735;28;20049;-77
2021/01/09 04:07:26;;;;;;;20.40;9.88;;;1.30;99.90;;;;;;4945915;28;20085;-76
2021/01/09 04:09:52;;;;;;;20.42;10.30;;;1.20;99.90;;;;;;4951541;28;20031;-77
2021/01/09 04:12:18;;;;;;;22.23;10.32;;;1.20;99.90;;;;;;4977191;28;20035;-78
2021/01/09 04:14:44;;;;;;;20.55;10.00;;;1.20;99.90;;;;;;4991332;28;20030;-78
2021/01/09 04:17:10;;;;;;;17.73;8.93;;;1.10;99.90;;;;;;4950953;28;20031;-77
2021/01/09 04:19:35;;;;;;;20.52;10.07;;;1.10;99.90;;;;;;4972999;28;20117;-77
2021/01/09 04:22:01;;;;;;;20.92;9.88;;;1.10;99.90;;;;;;4951135;28;20050;-78
2021/01/09 04:24:27;;;;;;;21.83;10.32;;;1.10;99.90;;;;;;4959690;28;20030;-78
2021/01/09 04:26:58;;;;;;;20.52;10.73;;;1.10;99.90;;;;;;4978546;28;20073;-77
2021/01/09 04:29:24;;;;;;;24.55;11.55;;;1.10;99.90;;;;;;4974717;28;20514;-77
2021/01/09 04:31:51;;;;;;;21.70;11.57;;;1.10;99.90;;;;;;4968779;28;20809;-76
2021/01/09 04:34:18;;;;;;;20.67;10.25;;;1.10;99.90;;;;;;4974477;28;20031;-77
2021/01/09 04:36:44;;;;;;;21.10;10.13;;;1.10;99.90;;;;;;4970291;28;20109;-77
2021/01/09 04:39:10;;;;;;;20.20;11.15;;;1.10;99.90;;;;;;4991513;28;20051;-77
2021/01/09 04:41:36;;;;;;;19.20;10.85;;;1.10;99.90;;;;;;4958109;28;20046;-78
2021/01/09 04:44:08;;;;;;;20.50;10.77;;;1.00;99.90;;;;;;4969739;28;20038;-77
2021/01/09 04:46:53;;;;;;;22.10;10.52;;;1.00;99.90;;;;;;4975181;28;20030;-76
2021/01/09 04:49:20;;;;;;;21.37;9.83;;;1.00;99.90;;;;;;4979168;28;20046;-77
2021/01/09 04:51:48;;;;;;;19.33;9.63;;;1.10;99.90;;;;;;4965855;28;20288;-77
2021/01/09 04:54:16;;;;;;;21.08;9.23;;;1.10;99.90;;;;;;4971801;28;20090;-76
2021/01/09 04:56:44;;;;;;;18.15;9.15;;;1.00;99.90;;;;;;4973442;28;20482;-77
2021/01/09 04:59:13;;;;;;;20.40;10.07;;;1.00;99.90;;;;;;4959365;28;20109;-77
2021/01/09 05:01:41;;;;;;;19.45;9.25;;;1.00;99.90;;;;;;4967837;28;20125;-77
2021/01/09 05:04:07;;;;;;;21.30;9.98;;;0.90;99.90;;;;;;4959815;28;20023;-77
2021/01/09 05:06:33;;;;;;;20.13;9.65;;;1.00;99.90;;;;;;4970367;28;20033;-77
2021/01/09 05:08:58;;;;;;;20.17;9.65;;;1.10;99.90;;;;;;4976522;28;20144;-76
2021/01/09 05:11:24;;;;;;;17.65;9.07;;;1.00;99.90;;;;;;4958115;28;20046;-77
2021/01/09 05:13:50;;;;;;;18.25;9.20;;;1.00;99.90;;;;;;4980877;28;20108;-76
2021/01/09 05:16:16;;;;;;;15.07;8.23;;;1.00;99.90;;;;;;4975198;28;20034;-75
2021/01/09 05:18:42;;;;;;;15.43;8.35;;;1.00;99.90;;;;;;4982356;28;20153;-76
2021/01/09 05:21:10;;;;;;;18.02;8.95;;;1.00;99.90;;;;;;4964075;28;20614;-76
2021/01/09 05:23:51;;;;;;;17.25;8.88;;;1.00;99.90;;;;;;4980546;28;20068;-77
2021/01/09 05:26:21;;;;;;;17.75;8.52;;;0.90;99.90;;;;;;4978770;28;20141;-76
2021/01/09 05:28:49;;;;;;;17.05;8.88;;;1.00;99.90;;;;;;4977020;28;20515;-77
2021/01/09 05:31:16;;;;;;;15.80;8.30;;;1.00;99.90;;;;;;4971598;28;20073;-76
2021/01/09 05:33:42;;;;;;;14.73;8.15;;;1.00;99.90;;;;;;4981378;28;20556;-76
2021/01/09 05:36:09;;;;;;;15.80;8.20;;;0.90;99.90;;;;;;4970562;28;20041;-76
2021/01/09 05:38:37;;;;;;;15.52;8.20;;;0.90;99.90;;;;;;4976344;28;20037;-76
2021/01/09 05:41:08;;;;;;;14.18;8.07;;;0.80;99.90;;;;;;4982449;28;20022;-77
2021/01/09 05:43:34;;;;;;;15.50;7.60;;;0.80;99.90;;;;;;4954828;28;20720;-76
2021/01/09 05:46:00;;;;;;;15.60;8.38;;;0.90;99.90;;;;;;4968136;28;20038;-77
2021/01/09 05:48:29;;;;;;;15.75;7.78;;;0.90;99.90;;;;;;4974908;28;20034;-77
2021/01/09 05:50:55;;;;;;;16.00;7.85;;;0.90;99.90;;;;;;4977482;28;20039;-77
2021/01/09 05:53:38;;;;;;;13.45;7.53;;;0.80;99.90;;;;;;4970483;28;20137;-77
2021/01/09 05:56:05;;;;;;;14.75;7.40;;;0.90;99.90;;;;;;4972425;28;20045;-76
2021/01/09 05:58:31;;;;;;;13.20;7.45;;;0.80;99.90;;;;;;4964918;28;20535;-77
2021/01/09 06:00:58;;;;;;;12.38;7.18;;;0.80;99.90;;;;;;4982345;28;20037;-76
2021/01/09 06:03:42;;;;;;;12.20;7.25;;;0.90;99.90;;;;;;4970228;28;20038;-77
2021/01/09 06:06:25;;;;;;;12.77;7.22;;;0.90;99.90;;;;;;4959132;28;20038;-77
2021/01/09 06:09:00;;;;;;;12.27;7.15;;;0.90;99.90;;;;;;4964092;28;20049;-77
2021/01/09 06:11:37;;;;;;;14.70;8.07;;;0.90;99.90;;;;;;4972526;28;20499;-76
2021/01/09 06:14:09;;;;;;;12.80;7.25;;;0.90;99.90;;;;;;4973366;28;20091;-76
2021/01/09 06:16:42;;;;;;;16.38;8.35;;;0.90;99.90;;;;;;4964070;28;20061;-77
2021/01/09 06:19:09;;;;;;;14.82;8.05;;;1.00;99.90;;;;;;4991703;28;20112;-75
2021/01/09 06:21:36;;;;;;;14.30;7.93;;;1.00;99.90;;;;;;4972892;28;20038;-77
2021/01/09 06:24:04;;;;;;;14.82;7.60;;;0.90;99.90;;;;;;4965222;28;20499;-76
2021/01/09 06:26:30;;;;;;;14.05;7.50;;;0.90;99.90;;;;;;4980463;28;20146;-76
2021/01/09 06:29:15;;;;;;;16.63;8.48;;;0.90;99.90;;;;;;4973465;28;20067;-77
2021/01/09 06:31:42;;;;;;;12.95;7.68;;;0.80;99.90;;;;;;4982003;28;20030;-76
2021/01/09 06:34:10;;;;;;;15.77;7.90;;;0.80;99.90;;;;;;4950723;28;20139;-76
2021/01/09 06:36:38;;;;;;;14.50;7.93;;;0.80;99.90;;;;;;4965946;28;20061;-76
2021/01/09 06:39:04;;;;;;;16.88;8.35;;;0.90;99.90;;;;;;4974000;28;20062;-78
2021/01/09 06:41:32;;;;;;;14.70;7.65;;;0.90;99.90;;;;;;4968370;28;20038;-78
2021/01/09 06:44:05;;;;;;;16.40;8.38;;;0.80;99.90;;;;;;4978032;28;20033;-78
2021/01/09 06:46:33;;;;;;;17.27;8.68;;;0.90;99.90;;;;;;4976176;28;20515;-77
2021/01/09 06:48:59;;;;;;;15.73;7.82;;;0.90;99.90;;;;;;4973779;28;20074;-76
2021/01/09 06:51:37;;;;;;;16.23;8.02;;;0.90;99.90;;;;;;4965183;28;20476;-76
2021/01/09 06:54:15;;;;;;;15.52;7.95;;;0.80;99.90;;;;;;4985343;28;20035;-77
2021/01/09 06:56:43;;;;;;;19.10;8.30;;;0.80;99.90;;;;;;4947437;28;20035;-77
2021/01/09 06:59:09;;;;;;;16.55;8.45;;;0.80;99.90;;;;;;4961772;28;20034;-75
2021/01/09 07:01:38;;;;;;;16.30;8.43;;;0.90;99.90;;;;;;4968023;28;20041;-80
2021/01/09 07:04:07;;;;;;;17.45;8.75;;;0.90;99.90;;;;;;4967719;28;20077;-75
2021/01/09 07:06:54;;;;;;;18.98;8.73;;;1.00;99.90;;;;;;4972247;28;20049;-76
2021/01/09 07:09:24;;;;;;;17.92;8.77;;;1.00;99.90;;;;;;4987310;28;20026;-77
2021/01/09 07:11:54;;;;;;;18.40;8.43;;;1.00;99.90;;;;;;4949003;28;20555;-78
2021/01/09 07:14:20;;;;;;;17.45;8.55;;;1.00;99.90;;;;;;4971300;28;20050;-77
2021/01/09 07:16:47;;;;;;;15.93;8.32;;;1.00;99.90;;;;;;4960056;28;20069;-78
2021/01/09 07:19:14;;;;;;;17.08;8.55;;;1.00;99.90;;;;;;4964748;28;20633;-78
2021/01/09 07:21:40;;;;;;;16.55;8.55;;;0.90;99.90;;;;;;4968410;28;20693;-78
2021/01/09 07:24:09;;;;;;;19.75;9.13;;;0.90;99.90;;;;;;4975873;28;20759;-78
2021/01/09 07:26:40;;;;;;;17.27;8.13;;;0.90;99.90;;;;;;4953546;28;20031;-78
2021/01/09 07:29:06;;;;;;;18.38;9.02;;;0.90;99.90;;;;;;4970417;28;20043;-78
2021/01/09 07:31:32;;;;;;;21.02;9.45;;;0.90;99.90;;;;;;4966067;28;20105;-78
2021/01/09 07:33:59;;;;;;;17.92;9.15;;;0.90;99.90;;;;;;4962944;28;20632;-78
2021/01/09 07:36:29;;;;;;;18.40;9.18;;;0.90;99.90;;;;;;4980200;28;20041;-75
2021/01/09 07:39:03;;;;;;;18.08;8.82;;;0.90;99.90;;;;;;4968384;28;20048;-78
2021/01/09 07:41:34;;;;;;;65.18;26.70;;;0.80;99.90;;;;;;4972871;28;20050;-78
2021/01/09 07:44:20;;;;;;;27.90;12.18;;;0.90;99.90;;;;;;4979566;28;20027;-76
2021/01/09 07:46:52;;;;;;;24.23;11.15;;;0.90;99.90;;;;;;4979348;28;20495;-73
2021/01/09 07:49:32;;;;;;;20.15;9.57;;;0.80;99.90;;;;;;4966564;28;20067;-76
2021/01/09 07:52:04;;;;;;;19.05;9.13;;;0.90;99.90;;;;;;4960338;28;20077;-78
2021/01/09 07:54:38;;;;;;;19.00;9.02;;;0.90;99.90;;;;;;4944414;28;20045;-78
2021/01/09 07:57:04;;;;;;;24.40;10.07;;;0.90;99.90;;;;;;4960863;28;20479;-78
2021/01/09 07:59:31;;;;;;;21.70;9.90;;;1.00;99.90;;;;;;4944228;28;20031;-78
2021/01/09 08:01:56;;;;;;;25.40;11.40;;;1.00;99.90;;;;;;4946320;28;20074;-81
2021/01/09 08:04:22;;;;;;;24.13;10.43;;;1.00;99.90;;;;;;4944546;28;20062;-81
2021/01/09 08:06:48;;;;;;;21.42;9.55;;;1.00;99.90;;;;;;4953689;28;20049;-81
2021/01/09 08:09:13;;;;;;;25.55;10.38;;;1.00;99.90;;;;;;4965791;28;20038;-81
2021/01/09 08:11:43;;;;;;;32.95;13.40;;;1.10;99.90;;;;;;4950937;28;20042;-81
2021/01/09 08:14:11;;;;;;;25.08;10.85;;;1.10;99.90;;;;;;4973326;28;20046;-81
2021/01/09 08:16:36;;;;;;;21.42;10.07;;;1.10;99.90;;;;;;4981301;28;20527;-77
2021/01/09 08:19:19;;;;;;;22.70;10.27;;;1.10;99.90;;;;;;4955106;28;20038;-77
2021/01/09 08:21:46;;;;;;;23.92;10.95;;;1.10;99.90;;;;;;4968421;28;20041;-77
2021/01/09 08:24:21;;;;;;;27.45;10.48;;;1.10;99.90;;;;;;4962801;28;20765;-77
2021/01/09 08:26:52;;;;;;;24.55;10.10;;;1.20;99.90;;;;;;4963638;28;20042;-78
2021/01/09 08:29:19;;;;;;;24.98;10.27;;;1.20;99.90;;;;;;4972421;28;20074;-76
2021/01/09 08:31:45;;;;;;;22.80;10.20;;;1.20;99.90;;;;;;4956604;28;20498;-77
2021/01/09 08:34:10;;;;;;;21.10;9.55;;;1.20;99.90;;;;;;4988433;28;20121;-77
2021/01/09 08:36:40;;;;;;;20.23;9.23;;;1.20;99.90;;;;;;4973842;28;20034;-77
2021/01/09 08:39:07;;;;;;;22.77;9.95;;;1.30;99.90;;;;;;4947598;28;20042;-77
2021/01/09 08:41:37;;;;;;;23.48;10.88;;;1.30;99.90;;;;;;4959892;28;20039;-77
2021/01/09 08:44:11;;;;;;;22.40;10.27;;;1.30;99.90;;;;;;4975543;28;20030;-77
2021/01/09 08:46:39;;;;;;;28.30;12.48;;;1.30;99.90;;;;;;4953866;28;20484;-77
2021/01/09 08:49:05;;;;;;;27.77;11.95;;;1.30;99.90;;;;;;4970043;28;20113;-77
2021/01/09 08:51:37;;;;;;;30.05;15.10;;;1.30;99.90;;;;;;4982776;28;20146;-77
2021/01/09 08:54:06;;;;;;;37.28;15.25;;;1.40;99.90;;;;;;4968609;28;20509;-74
2021/01/09 08:56:34;;;;;;;27.05;11.43;;;1.30;99.90;;;;;;4974145;28;20774;-76
2021/01/09 08:59:05;;;;;;;22.80;10.35;;;1.40;99.90;;;;;;4977532;28;20058;-77
2021/01/09 09:01:43;;;;;;;29.98;11.90;;;1.40;99.90;;;;;;4966706;28;20042;-80
2021/01/09 09:04:10;;;;;;;97.03;42.85;;;1.40;99.90;;;;;;4964002;28;20042;-79
2021/01/09 09:06:38;;;;;;;36.85;17.15;;;1.50;99.90;;;;;;4972132;28;20069;-72
2021/01/09 09:09:08;;;;;;;35.30;16.52;;;1.60;99.90;;;;;;4971564;28;20103;-78
2021/01/09 09:11:34;;;;;;;31.55;15.38;;;1.50;99.90;;;;;;4964121;28;20042;-79
2021/01/09 09:14:10;;;;;;;28.77;13.07;;;1.60;99.90;;;;;;4976201;28;20116;-78
2021/01/09 09:16:38;;;;;;;34.17;15.10;;;1.60;99.90;;;;;;4947120;28;20066;-77
2021/01/09 09:19:14;;;;;;;29.90;14.63;;;1.60;99.90;;;;;;4947953;28;20039;-78
2021/01/09 09:21:45;;;;;;;29.58;13.43;;;1.70;99.90;;;;;;4966218;28;20034;-79
2021/01/09 09:24:12;;;;;;;31.75;15.43;;;1.70;99.90;;;;;;4971178;28;20045;-79
2021/01/09 09:26:38;;;;;;;33.42;13.88;;;1.70;99.90;;;;;;4972315;28;20846;-79
2021/01/09 09:29:04;;;;;;;36.92;14.30;;;1.70;99.90;;;;;;4973142;28;20110;-79
2021/01/09 09:31:33;;;;;;;39.63;16.02;;;1.70;99.90;;;;;;4965859;28;20036;-79
2021/01/09 09:34:17;;;;;;;39.75;17.13;;;1.80;99.90;;;;;;4977564;28;20042;-79
2021/01/09 09:36:52;;;;;;;44.95;17.55;;;1.80;99.90;;;;;;4978426;28;20043;-79
2021/01/09 09:39:20;;;;;;;33.53;15.20;;;1.80;99.90;;;;;;4964810;28;20039;-79
2021/01/09 09:41:56;;;;;;;35.45;13.27;;;1.80;99.90;;;;;;4962091;28;20129;-84
2021/01/09 09:44:45;;;;;;;35.55;14.02;;;1.80;99.90;;;;;;4978214;28;20084;-79
2021/01/09 09:47:23;;;;;;;32.25;13.02;;;1.90;99.90;;;;;;4968625;28;20039;-79
2021/01/09 09:49:49;;;;;;;35.70;13.77;;;1.80;99.90;;;;;;4960974;28;20038;-79
2021/01/09 09:52:19;;;;;;;34.92;13.55;;;1.80;99.90;;;;;;4976692;28;20037;-79
2021/01/09 09:54:45;;;;;;;39.53;15.18;;;1.80;99.90;;;;;;4967998;28;20056;-79
2021/01/09 09:57:24;;;;;;;50.42;19.05;;;1.70;99.90;;;;;;4979422;28;20487;-77
2021/01/09 10:00:12;;;;;;;43.53;15.13;;;1.80;99.90;;;;;;4960713;28;20862;-79
2021/01/09 10:02:54;;;;;;;52.92;14.60;;;1.90;99.90;;;;;;4971990;28;20034;-78
2021/01/09 10:05:21;;;;;;;42.55;15.75;;;1.90;99.90;;;;;;4968305;28;20168;-78
2021/01/09 10:07:46;;;;;;;45.83;15.90;;;1.90;99.90;;;;;;4973013;28;20085;-78
2021/01/09 10:10:19;;;;;;;45.50;15.52;;;2.00;99.90;;;;;;4967342;28;20547;-75
2021/01/09 10:12:55;;;;;;;43.60;14.88;;;2.00;99.90;;;;;;4994326;28;20034;-75
2021/01/09 10:15:21;;;;;;;55.58;17.17;;;1.90;99.90;;;;;;4976543;28;20034;-75
2021/01/09 10:17:55;;;;;;;44.88;16.55;;;2.00;99.90;;;;;;4971526;28;20034;-75
2021/01/09 10:20:21;;;;;;;44.83;14.73;;;2.00;99.90;;;;;;4968445;28;20042;-75
2021/01/09 10:22:46;;;;;;;43.75;14.55;;;2.00;99.90;;;;;;4972691;28;20497;-76
2021/01/09 10:25:12;;;;;;;38.58;14.43;;;2.00;99.90;;;;;;4975916;28;20030;-79
2021/01/09 10:27:38;;;;;;;35.08;15.18;;;2.10;99.90;;;;;;4989714;28;20837;-81
2021/01/09 10:30:05;;;;;;;38.60;14.30;;;2.00;99.90;;;;;;4970693;28;20575;-76
2021/01/09 10:32:31;;;;;;;40.50;14.57;;;2.00;99.90;;;;;;4970579;28;20038;-78
2021/01/09 10:34:57;;;;;;;42.83;15.00;;;2.00;99.90;;;;;;4970629;28;20525;-79
2021/01/09 10:37:23;;;;;;;38.13;14.23;;;2.00;99.90;;;;;;4973828;28;20710;-79
2021/01/09 10:39:49;;;;;;;44.80;15.50;;;2.20;99.90;;;;;;4968254;28;20533;-78
2021/01/09 10:42:15;;;;;;;41.47;16.33;;;2.20;99.90;;;;;;4983640;28;20039;-77
2021/01/09 10:44:41;;;;;;;44.38;15.68;;;2.20;99.90;;;;;;4973280;28;20109;-77
2021/01/09 10:47:07;;;;;;;41.58;16.33;;;2.20;99.90;;;;;;4981701;28;20667;-76
2021/01/09 10:49:33;;;;;;;36.60;15.00;;;2.20;99.90;;;;;;4962745;28;20149;-76
2021/01/09 10:51:59;;;;;;;35.95;15.55;;;2.20;99.90;;;;;;4961606;28;20064;-77
2021/01/09 10:54:25;;;;;;;40.35;14.90;;;2.30;99.90;;;;;;4986250;28;20037;-77
2021/01/09 10:56:50;;;;;;;40.42;15.57;;;2.30;99.90;;;;;;4968061;28;20031;-77
2021/01/09 10:59:17;;;;;;;33.30;14.23;;;2.30;99.90;;;;;;4966026;28;20049;-77
2021/01/09 11:01:42;;;;;;;35.75;14.85;;;2.30;99.90;;;;;;4952010;28;20494;-77
2021/01/09 11:04:08;;;;;;;36.80;16.30;;;2.30;99.90;;;;;;4944530;28;20037;-80
2021/01/09 11:06:34;;;;;;;34.97;14.93;;;2.30;99.90;;;;;;4959646;28;20066;-79
2021/01/09 11:08:59;;;;;;;48.13;22.15;;;2.30;99.90;;;;;;4969046;28;20031;-78
2021/01/09 11:11:25;;;;;;;33.78;17.73;;;2.40;99.90;;;;;;4973066;28;20081;-76
2021/01/09 11:13:51;;;;;;;31.02;13.57;;;2.40;99.90;;;;;;4960981;28;20035;-78
2021/01/09 11:16:24;;;;;;;30.33;15.05;;;2.50;99.90;;;;;;4952944;28;20406;-78
2021/01/09 11:18:50;;;;;;;34.17;15.18;;;2.40;99.90;;;;;;4976491;28;20030;-78
2021/01/09 11:21:18;;;;;;;39.10;16.88;;;2.40;99.90;;;;;;4972099;28;20057;-78
2021/01/09 11:23:47;;;;;;;38.95;16.08;;;2.50;99.90;;;;;;4984320;28;20043;-78
2021/01/09 11:26:21;;;;;;;36.20;15.23;;;2.50;99.90;;;;;;4970227;28;20034;-77
2021/01/09 11:28:47;;;;;;;35.10;15.48;;;2.60;99.90;;;;;;4986437;28;20101;-77
2021/01/09 11:31:13;;;;;;;41.72;19.90;;;2.70;99.90;;;;;;4948818;28;20026;-78
2021/01/09 11:33:40;;;;;;;39.65;16.55;;;2.70;99.90;;;;;;4965705;28;20039;-78
2021/01/09 11:36:08;;;;;;;37.90;16.02;;;2.60;99.90;;;;;;4961189;28;20492;-77
2021/01/09 11:38:34;;;;;;;32.38;14.98;;;2.70;99.90;;;;;;4946294;28;20035;-77
2021/01/09 11:41:00;;;;;;;34.15;14.65;;;2.70;99.90;;;;;;4964038;28;20038;-81
2021/01/09 11:43:25;;;;;;;34.08;15.90;;;2.60;99.90;;;;;;4960133;28;20041;-81
2021/01/09 11:45:51;;;;;;;34.67;15.13;;;2.60;99.90;;;;;;4969288;28;20030;-82
2021/01/09 11:48:17;;;;;;;31.05;13.60;;;2.60;99.90;;;;;;4971316;28;20045;-81
2021/01/09 11:50:43;;;;;;;30.80;14.20;;;2.60;99.90;;;;;;4968410;28;20134;-79
2021/01/09 11:53:09;;;;;;;34.17;14.60;;;2.60;99.90;;;;;;4978146;28;20399;-81
2021/01/09 11:55:35;;;;;;;33.75;13.55;;;2.70;99.90;;;;;;4996492;28;20475;-81
2021/01/09 11:58:01;;;;;;;34.15;16.30;;;2.70;99.90;;;;;;4963769;28;20053;-81
2021/01/09 12:00:26;;;;;;;37.42;15.98;;;2.70;99.90;;;;;;4963597;28;20418;-81
2021/01/09 12:02:52;;;;;;;35.45;16.33;;;2.80;99.90;;;;;;4996219;28;20589;-81
2021/01/09 12:05:18;;;;;;;39.50;16.30;;;2.90;99.90;;;;;;4979640;28;20049;-80
2021/01/09 12:07:43;;;;;;;35.55;15.75;;;2.90;99.90;;;;;;4966406;28;20478;-75
2021/01/09 12:10:10;;;;;;;33.13;15.95;;;2.80;99.90;;;;;;4966783;28;20035;-80
2021/01/09 12:12:36;;;;;;;41.33;17.00;;;2.80;99.90;;;;;;4964226;28;20491;-80
2021/01/09 12:15:03;;;;;;;48.65;22.58;;;2.80;99.90;;;;;;4957027;28;20030;-82
2021/01/09 12:17:29;;;;;;;38.47;18.52;;;2.80;99.90;;;;;;4959849;28;20404;-81
2021/01/09 12:19:54;;;;;;;41.25;19.83;;;2.80;99.90;;;;;;4960106;28;20122;-80
2021/01/09 12:22:20;;;;;;;37.65;16.50;;;2.80;99.90;;;;;;4968327;28;20039;-80
2021/01/09 12:24:45;;;;;;;35.42;16.30;;;2.80;99.90;;;;;;4967951;28;20057;-80
2021/01/09 12:27:11;;;;;;;36.22;17.20;;;2.90;99.90;;;;;;4958031;28;20038;-81
2021/01/09 12:29:37;;;;;;;45.45;22.13;;;2.80;99.90;;;;;;4971435;28;20041;-80
2021/01/09 12:32:03;;;;;;;41.60;19.88;;;2.80;99.90;;;;;;4969561;28;20126;-81
2021/01/09 12:34:30;;;;;;;35.42;17.45;;;2.80;99.90;;;;;;4966510;28;20574;-78
2021/01/09 12:36:58;;;;;;;40.22;17.15;;;2.80;99.90;;;;;;4978944;28;20038;-81
2021/01/09 12:39:24;;;;;;;36.90;17.30;;;2.90;99.90;;;;;;4963252;28;20045;-81
2021/01/09 12:41:49;;;;;;;32.20;16.45;;;2.80;99.90;;;;;;4979807;28;20034;-81
2021/01/09 12:44:15;;;;;;;38.05;17.15;;;2.90;99.90;;;;;;4954024;28;20039;-81
2021/01/09 12:46:46;;;;;;;42.08;20.98;;;2.80;99.90;;;;;;4983976;28;20031;-80